Bend, OR

7:20 PM PDT on August 24, 2016 (GMT -0700)
RAWS | | Change Station

Elev 3944 ft 44.05 °N, 121.40 °W | Updated 1 hour ago

Clear
Clear
75.0 °F
Feels Like 75.0 °F
N
10.0
Wind Variable Wind from NNW
Gusts 19.0 mph

Today
High -- | Low -- °F
--% Chance of Precip.
Yesterday
High -- | Low -- °F
Precip. -- in
Pressure 30.12 in
Visibility 10.0 miles
Clouds Clear
Dew Point 32.0 °F
Humidity 21%
Rainfall in
Snow Depth Not available.
6:19 AM 7:53 PM
Waning Gibbous, 51% visible
METAR KRDM 250156Z 02012KT 10SM CLR 26/M03 A3016 RMK AO2 SLP200 T02561033
Pressure 30.12 in
Visibility 10.0 miles
Clouds Clear
Dew Point 32.0 °F
Humidity 21%
Rainfall in
Snow Depth Not available.
6:19 AM 7:53 PM
Waning Gibbous, 51% visible
METAR KRDM 250156Z 02012KT 10SM CLR 26/M03 A3016 RMK AO2 SLP200 T02561033

10-Day Weather Forecast

Almanac

Astronomy

Aug. 24, 2016 Rise Set
Actual Time
Civil Twilight
Nautical Twilight
Astronomical Twilight
Moon
Length of Visible Light
Length of Day
Tomorrow will be .
, % of the Moon is Illuminated

Today's Extremes

State Highs State Lows

Community

WunderPhotos

Upload Photos

1,934,776 photos uploaded!

WunderBlog® & News

Nearby

Air Quality

  Air Quality AQ Index Pollutant
Not available.

Snow Depth

Station Depth Elevation

Earthquake Activity

City Distance Mag. Time & Date
Minimum magnitude displayed is 2.5.

Coastal Water Temperatures

Place Temperature

Stations

Nearby Weather Stations

Station Location Temp. Windchill Dew Point Humidity Wind Precip. Elev Updated Type
                   

Watches & Warnings

There are currently no watches in effect.